Terminal Aerodrome Forecast
Issued by NWS Shreveport, LA

Home | Current Version | Previous Version | Text Only | Print | Product List | Glossary On
Versions: 1 2 3 4 5 6 7 8 9 10 11 12 13 14 15 16
448
FTUS44 KSHV 251120
TAFTYR
TAF
KTYR 251120Z 2512/2612 00000KT P6SM SKC
     FM251400 14006KT P6SM SCT015
     FM251600 15008KT P6SM VCSH SCT035 SCT045
     FM260000 13006KT P6SM SCT060 SCT250
     FM260700 14003KT P6SM SKC=

USA.gov is the U.S. government's official web portal to all federal, state and local government web resources and services.